Ocean Pathfinder — WDG8613 — position and weather

sailwx.info

Track history (hours):
 
Tides and Currents Weather Stations Pressure Air Temp Water Temp Dewpoint Dewpoint Depression Visibility Wind Speed Wind Dir Waves Ship Positions

Ocean Pathfinder

Owner: Ocean Pathfinder Holding, LLC, Seattle, WA. More information available from US FCC via Universal Licensing System and Coast Guard Vessel Documentation Center.

Last reported at 2018-Feb-25 23:00 UTC. Time now 2018-Feb-25 23:28 UTC.
Position N 48°31' W 122°45'.

Length 39 m; draft 6 m.

Type: Tow > 200 m length. MMSI: 367579350.

Date/timePositionNaut miles runAvg speedWind from/ knotsBaromVisibWave heightAir tempDewpointWater temp
2018-Feb-25 23:00N 48°31' W 122°45'612.2
2018-Feb-25 22:30N 48°37' W 122°45'510.7
2018-Feb-25 22:00N 48°42' W 122°44'910.8
2018-Feb-25 21:11N 48°48' W 122°55'1010.9
2018-Feb-25 20:14N 48°54' W 123°08'210.8
2018-Feb-25 20:00N 48°55' W 123°11'510.6
2018-Feb-25 19:29N 48°59' W 123°17'510.2
2018-Feb-25 19:00N 49°02' W 123°22'510.3
2018-Feb-25 18:29N 49°06' W 123°28'510.4
2018-Feb-25 18:00N 49°10' W 123°34'510.5
2018-Feb-25 17:30N 49°13' W 123°39'610.4
2018-Feb-25 16:54N 49°18' W 123°47'3610.0
2018-Feb-25 13:17N 49°38' W 124°32'310.4
2018-Feb-25 12:57N 49°41' W 124°36'510.1
2018-Feb-25 12:30N 49°44' W 124°41'510.0
2018-Feb-25 12:00N 49°47' W 124°47'510.1
2018-Feb-25 11:29N 49°50' W 124°54'510.0
2018-Feb-25 11:00N 49°53' W 124°60'5 9.9
2018-Feb-25 10:30N 49°56' W 125°06'5 8.7
2018-Feb-25 09:56N 49°59' W 125°12'4 8.9
2018-Feb-25 09:30N 50°02' W 125°14'510.3
2018-Feb-25 09:00N 50°07' W 125°18'5 9.5
2018-Feb-25 08:30N 50°11' W 125°22'3 5.2
2018-Feb-25 08:00N 50°14' W 125°23'2 4.3
2018-Feb-25 07:29N 50°16' W 125°24'1 2.6
2018-Feb-25 07:00N 50°17' W 125°24'2 3.3
2018-Feb-25 06:30N 50°15' W 125°23'2 4.8
2018-Feb-25 05:59N 50°18' W 125°25'3 5.3
2018-Feb-25 05:30N 50°20' W 125°25'41 7.3
2018-Feb-24 23:57N 50°30' W 126°27'4 9.2
2018-Feb-24 23:29N 50°30' W 126°34'5 9.0
2018-Feb-24 22:59N 50°32' W 126°41'4 7.1
2018-Feb-24 22:28N 50°35' W 126°42'4 8.9
2018-Feb-24 22:00N 50°38' W 126°48'10 8.0
2018-Feb-24 20:47N 50°44' W 126°59'3 9.8
2018-Feb-24 20:27N 50°46' W 127°03'510.0
2018-Feb-24 19:59N 50°49' W 127°09'510.0
2018-Feb-24 19:30N 50°51' W 127°16'5 9.8
2018-Feb-24 19:00N 50°54' W 127°23'4 8.6
2018-Feb-24 18:30N 50°57' W 127°28'4 8.6
2018-Feb-24 18:00N 50°59' W 127°34'4 8.2
2018-Feb-24 17:30N 51°02' W 127°38'4 8.4
2018-Feb-24 17:00N 51°05' W 127°43'4 8.6
2018-Feb-24 16:30N 51°08' W 127°48'4 8.8
2018-Feb-24 16:00N 51°12' W 127°51'5 9.6
2018-Feb-24 15:25N 51°17' W 127°53'4 9.8
2018-Feb-24 15:00N 51°21' W 127°54'5 9.4
2018-Feb-24 14:28N 51°26' W 127°51'510.0
2018-Feb-24 14:00N 51°30' W 127°52'510.3
2018-Feb-24 13:30N 51°35' W 127°53'510.0
2018-Feb-24 13:00N 51°40' W 127°55'510.4
2018-Feb-24 12:30N 51°45' W 127°56'510.0
2018-Feb-24 12:00N 51°50' W 127°57'510.0
2018-Feb-24 11:30N 51°55' W 127°56'5 9.8
2018-Feb-24 11:00N 52°00' W 127°56'4 7.7
2018-Feb-24 10:30N 52°04' W 127°57'510.2
2018-Feb-24 10:00N 52°05' W 128°05'5 9.1
2018-Feb-24 09:30N 52°09' W 128°08'4 8.3
2018-Feb-24 09:00N 52°13' W 128°07'4 7.9
2018-Feb-24 08:29N 52°14' W 128°14'5 9.8
2018-Feb-24 08:00N 52°15' W 128°21'5 9.7
2018-Feb-24 07:29N 52°18' W 128°28'5 9.6
2018-Feb-24 07:00N 52°22' W 128°31'510.0
2018-Feb-24 06:30N 52°26' W 128°28'99 9.0
2018-Feb-23 19:31N 53°49' W 129°59'110.4
2018-Feb-23 19:28N 53°50' W 129°60'5 9.9
2018-Feb-23 19:00N 53°53' W 130°05'5 9.4
2018-Feb-23 18:30N 53°55' W 130°12'5 9.8
2018-Feb-23 18:00N 54°00' W 130°13'5 9.7
2018-Feb-23 17:30N 54°05' W 130°17'3 6.8
2018-Feb-23 17:00N 54°06' W 130°22'510.0
2018-Feb-23 16:30N 54°10' W 130°28'510.1
2018-Feb-23 16:00N 54°11' W 130°36'510.4
2018-Feb-23 15:30N 54°14' W 130°44'5 9.8
2018-Feb-23 15:01N 54°17' W 130°50'4 8.6
2018-Feb-23 14:30N 54°19' W 130°57'3 6.7
2018-Feb-23 14:00N 54°20' W 131°02'3 6.6
2018-Feb-23 13:30N 54°23' W 131°05'  
Track history (hours):
 
Tides and Currents Weather Stations Pressure Air Temp Water Temp Dewpoint Dewpoint Depression Visibility Wind Speed Wind Dir Waves Ship Positions

Ocean Pathfinder

Owner: Ocean Pathfinder Holding, LLC, Seattle, WA. More information available from US FCC via Universal Licensing System and Coast Guard Vessel Documentation Center.

Last reported at 2018-Feb-25 23:00 UTC. Time now 2018-Feb-25 23:28 UTC.
Position N 48°31' W 122°45'.

Length 39 m; draft 6 m.

Type: Tow > 200 m length. MMSI: 367579350.

Date/timePositionNaut miles runAvg speedWind from/ knotsBaromVisibWave heightAir tempDewpointWater temp
2018-Feb-25 23:00N 48°31' W 122°45'612.2
2018-Feb-25 22:30N 48°37' W 122°45'510.7
2018-Feb-25 22:00N 48°42' W 122°44'910.8
2018-Feb-25 21:11N 48°48' W 122°55'1010.9
2018-Feb-25 20:14N 48°54' W 123°08'210.8
2018-Feb-25 20:00N 48°55' W 123°11'510.6
2018-Feb-25 19:29N 48°59' W 123°17'510.2
2018-Feb-25 19:00N 49°02' W 123°22'510.3
2018-Feb-25 18:29N 49°06' W 123°28'510.4
2018-Feb-25 18:00N 49°10' W 123°34'510.5
2018-Feb-25 17:30N 49°13' W 123°39'610.4
2018-Feb-25 16:54N 49°18' W 123°47'3610.0
2018-Feb-25 13:17N 49°38' W 124°32'310.4
2018-Feb-25 12:57N 49°41' W 124°36'510.1
2018-Feb-25 12:30N 49°44' W 124°41'510.0
2018-Feb-25 12:00N 49°47' W 124°47'510.1
2018-Feb-25 11:29N 49°50' W 124°54'510.0
2018-Feb-25 11:00N 49°53' W 124°60'5 9.9
2018-Feb-25 10:30N 49°56' W 125°06'5 8.7
2018-Feb-25 09:56N 49°59' W 125°12'4 8.9
2018-Feb-25 09:30N 50°02' W 125°14'510.3
2018-Feb-25 09:00N 50°07' W 125°18'5 9.5
2018-Feb-25 08:30N 50°11' W 125°22'3 5.2
2018-Feb-25 08:00N 50°14' W 125°23'2 4.3
2018-Feb-25 07:29N 50°16' W 125°24'1 2.6
2018-Feb-25 07:00N 50°17' W 125°24'2 3.3
2018-Feb-25 06:30N 50°15' W 125°23'2 4.8
2018-Feb-25 05:59N 50°18' W 125°25'3 5.3
2018-Feb-25 05:30N 50°20' W 125°25'41 7.3
2018-Feb-24 23:57N 50°30' W 126°27'4 9.2
2018-Feb-24 23:29N 50°30' W 126°34'5 9.0
2018-Feb-24 22:59N 50°32' W 126°41'4 7.1
2018-Feb-24 22:28N 50°35' W 126°42'4 8.9
2018-Feb-24 22:00N 50°38' W 126°48'10 8.0
2018-Feb-24 20:47N 50°44' W 126°59'3 9.8
2018-Feb-24 20:27N 50°46' W 127°03'510.0
2018-Feb-24 19:59N 50°49' W 127°09'510.0
2018-Feb-24 19:30N 50°51' W 127°16'5 9.8
2018-Feb-24 19:00N 50°54' W 127°23'4 8.6
2018-Feb-24 18:30N 50°57' W 127°28'4 8.6
2018-Feb-24 18:00N 50°59' W 127°34'4 8.2
2018-Feb-24 17:30N 51°02' W 127°38'4 8.4
2018-Feb-24 17:00N 51°05' W 127°43'4 8.6
2018-Feb-24 16:30N 51°08' W 127°48'4 8.8
2018-Feb-24 16:00N 51°12' W 127°51'5 9.6
2018-Feb-24 15:25N 51°17' W 127°53'4 9.8
2018-Feb-24 15:00N 51°21' W 127°54'5 9.4
2018-Feb-24 14:28N 51°26' W 127°51'510.0
2018-Feb-24 14:00N 51°30' W 127°52'510.3
2018-Feb-24 13:30N 51°35' W 127°53'510.0
2018-Feb-24 13:00N 51°40' W 127°55'510.4
2018-Feb-24 12:30N 51°45' W 127°56'510.0
2018-Feb-24 12:00N 51°50' W 127°57'510.0
2018-Feb-24 11:30N 51°55' W 127°56'5 9.8
2018-Feb-24 11:00N 52°00' W 127°56'4 7.7
2018-Feb-24 10:30N 52°04' W 127°57'510.2
2018-Feb-24 10:00N 52°05' W 128°05'5 9.1
2018-Feb-24 09:30N 52°09' W 128°08'4 8.3
2018-Feb-24 09:00N 52°13' W 128°07'4 7.9
2018-Feb-24 08:29N 52°14' W 128°14'5 9.8
2018-Feb-24 08:00N 52°15' W 128°21'5 9.7
2018-Feb-24 07:29N 52°18' W 128°28'5 9.6
2018-Feb-24 07:00N 52°22' W 128°31'510.0
2018-Feb-24 06:30N 52°26' W 128°28'99 9.0
2018-Feb-23 19:31N 53°49' W 129°59'110.4
2018-Feb-23 19:28N 53°50' W 129°60'5 9.9
2018-Feb-23 19:00N 53°53' W 130°05'5 9.4
2018-Feb-23 18:30N 53°55' W 130°12'5 9.8
2018-Feb-23 18:00N 54°00' W 130°13'5 9.7
2018-Feb-23 17:30N 54°05' W 130°17'3 6.8
2018-Feb-23 17:00N 54°06' W 130°22'510.0
2018-Feb-23 16:30N 54°10' W 130°28'510.1
2018-Feb-23 16:00N 54°11' W 130°36'510.4
2018-Feb-23 15:30N 54°14' W 130°44'5 9.8
2018-Feb-23 15:01N 54°17' W 130°50'4 8.6
2018-Feb-23 14:30N 54°19' W 130°57'3 6.7
2018-Feb-23 14:00N 54°20' W 131°02'3 6.6
2018-Feb-23 13:30N 54°23' W 131°05'  

Dump ship's entire track history